Terminal Aerodrome Forecast
Issued by NWS

Home | Current Version | Previous Version | Text Only | Print | Product List | Glossary On
Versions: 1 2 3 4 5 6 7 8 9 10 11 12 13 14 15
931
FTUS42 KTBW 301749
TAFLAL
TAF
KLAL 301749Z 3018/3118 15008KT P6SM -RA VCTS SCT025CB BKN060
      TEMPO 3018/3020 BKN025CB
     FM302000 13007KT P6SM RA VCTS SCT015 BKN030CB
     FM310000 VRB04KT P6SM VCSH SCT020 OVC080
     FM310800 VRB05KT P6SM VCSH SCT015 OVC100
     FM311400 20011KT P6SM VCSH SCT025 BKN050=

USA.gov is the U.S. government's official web portal to all federal, state and local government web resources and services.